Gaylord, Kansas
Current Conditions -  °F | °C
As of 10:53 PM on Friday 28 Nov 2014 (Local Time) from KRSL Reporting Station
Clear Clear  
Wind Chill: 37°   Ceiling: Unl
Heat Index: 42°   Visibility: 10mi
Dew Point: 30°   Wind: 9mph
Humidity: 62%   Direction: 200°SSW
Pressure: 29.68"   Gusts: NA
Location:  39.64°N, 98.85°W
Report Text: KRSL 290453Z AUTO 20008KT 10SM CLR 06/M01 A2968 RMK AO2 SLP054 T00561011
Loading
Personal Weather Stations






























Interactive Weather Map New forecast layout! Learn more

10-Day Weather Forecast

Advertisements
Track Severe Weather on mobile